Time;durP1;ratioP1;P1;durP2;ratioP2;P2;SDS_P1;SDS_P2;PMS_P1;PMS_P2;Temp;Humidity;BMP_temperature;BMP_pressure;BME280_temperature;BME280_humidity;BME280_pressure;Samples;Min_cycle;Max_cycle;Signal;HPM_P1;HPM_P2
2022/06/07 00:01:14;;;;;;;3.00;2.55;;;13.90;99.90;;;;;;4989769;28;20070;-70
2022/06/07 00:03:41;;;;;;;3.28;2.72;;;13.90;99.90;;;;;;4990507;28;20074;-70
2022/06/07 00:06:08;;;;;;;3.15;2.85;;;14.00;99.90;;;;;;4993633;28;20049;-71
2022/06/07 00:08:35;;;;;;;3.25;2.58;;;13.90;99.90;;;;;;4991427;28;20147;-67
2022/06/07 00:11:03;;;;;;;2.63;2.40;;;13.90;99.90;;;;;;4992393;28;20085;-69
2022/06/07 00:13:30;;;;;;;3.05;2.50;;;13.90;99.90;;;;;;4986636;28;20138;-74
2022/06/07 00:15:57;;;;;;;2.53;2.15;;;13.90;99.90;;;;;;4988467;28;20626;-73
2022/06/07 00:18:24;;;;;;;4.25;2.70;;;14.00;99.90;;;;;;4992276;28;20053;-72
2022/06/07 00:20:51;;;;;;;5.85;2.80;;;13.90;99.90;;;;;;4994275;28;20070;-73
2022/06/07 00:23:20;;;;;;;2.88;2.67;;;13.90;99.90;;;;;;4993002;28;20042;-73
2022/06/07 00:25:50;;;;;;;2.92;2.40;;;13.90;99.90;;;;;;4993381;28;20534;-69
2022/06/07 00:28:19;;;;;;;3.17;2.75;;;14.00;99.90;;;;;;4973767;28;20058;-71
2022/06/07 00:30:46;;;;;;;4.05;2.58;;;14.00;99.90;;;;;;4955643;28;20068;-70
2022/06/07 00:33:14;;;;;;;7.13;3.80;;;14.00;99.90;;;;;;4973686;28;20061;-72
2022/06/07 00:35:41;;;;;;;3.55;3.25;;;14.00;99.90;;;;;;4975289;28;20718;-74
2022/06/07 00:38:09;;;;;;;3.33;3.13;;;14.00;99.90;;;;;;4953528;28;20098;-72
2022/06/07 00:40:38;;;;;;;6.70;3.75;;;14.00;99.90;;;;;;4968785;28;20057;-68
2022/06/07 00:43:06;;;;;;;3.08;2.72;;;14.00;99.90;;;;;;4975569;28;20117;-72
2022/06/07 00:45:34;;;;;;;3.72;3.42;;;14.00;99.90;;;;;;4974541;28;20042;-70
2022/06/07 00:48:02;;;;;;;3.22;2.70;;;14.00;99.90;;;;;;4977040;28;20077;-70
2022/06/07 00:50:39;;;;;;;2.83;2.50;;;14.00;99.90;;;;;;4952321;28;20041;-69
2022/06/07 00:53:16;;;;;;;5.72;3.30;;;14.00;99.90;;;;;;4970497;28;20128;-70
2022/06/07 00:55:44;;;;;;;3.15;2.67;;;14.00;99.90;;;;;;4951954;28;20161;-73
2022/06/07 00:58:13;;;;;;;5.15;3.17;;;14.00;99.90;;;;;;4974781;28;20058;-70
2022/06/07 01:00:44;;;;;;;3.92;3.25;;;14.00;99.90;;;;;;4952330;28;20681;-72
2022/06/07 01:03:13;;;;;;;5.18;2.47;;;14.00;99.90;;;;;;4953935;28;20081;-70
2022/06/07 01:05:45;;;;;;;4.55;3.17;;;14.00;99.90;;;;;;4949549;28;20051;-69
2022/06/07 01:11:07;;;;;;;4.25;2.53;;;14.00;99.90;;;;;;4950049;28;20061;-70
2022/06/07 01:13:36;;;;;;;4.28;2.78;;;14.00;99.90;;;;;;4950601;28;20642;-70
2022/06/07 01:16:13;;;;;;;3.67;2.47;;;14.00;99.90;;;;;;4947399;28;20051;-71
2022/06/07 01:18:44;;;;;;;3.38;2.55;;;14.00;99.90;;;;;;4951409;28;20058;-73
2022/06/07 01:21:40;;;;;;;3.22;2.90;;;14.00;99.90;;;;;;4975386;28;20047;-68
2022/06/07 01:24:09;;;;;;;4.75;2.95;;;14.00;99.90;;;;;;4960113;28;20218;-73
2022/06/07 01:26:44;;;;;;;4.93;3.38;;;14.00;99.90;;;;;;4961461;28;20060;-74
2022/06/07 01:29:12;;;;;;;5.57;3.35;;;14.00;99.90;;;;;;4992661;28;20054;-72
2022/06/07 01:31:41;;;;;;;4.00;3.47;;;14.00;99.90;;;;;;5008690;28;20202;-71
2022/06/07 01:34:11;;;;;;;6.93;3.63;;;14.00;99.90;;;;;;4977156;28;20748;-68
2022/06/07 01:36:38;;;;;;;4.00;3.00;;;14.00;99.90;;;;;;4989967;28;20046;-72
2022/06/07 01:41:55;;;;;;;3.08;2.88;;;14.00;99.90;;;;;;4991083;28;20164;-73
2022/06/07 01:44:29;;;;;;;3.00;2.80;;;14.00;99.90;;;;;;4974478;28;20061;-68
2022/06/07 01:46:59;;;;;;;3.58;3.28;;;14.00;99.90;;;;;;4974380;28;20045;-69
2022/06/07 01:49:28;;;;;;;2.83;2.47;;;14.00;99.90;;;;;;4976905;28;20172;-71
2022/06/07 01:51:56;;;;;;;10.63;3.88;;;14.00;99.90;;;;;;4977487;28;20111;-71
2022/06/07 01:54:24;;;;;;;5.38;3.42;;;14.00;99.90;;;;;;4989912;28;20472;-69
2022/06/07 01:56:52;;;;;;;4.25;3.30;;;14.00;99.90;;;;;;4988762;28;20061;-68
2022/06/07 01:59:19;;;;;;;3.78;3.33;;;14.00;99.90;;;;;;4975597;28;20056;-70
2022/06/07 02:01:47;;;;;;;3.50;3.20;;;14.00;99.90;;;;;;4977023;28;20069;-70
2022/06/07 02:04:14;;;;;;;4.57;3.15;;;14.00;99.90;;;;;;5004008;28;20140;-67
2022/06/07 02:06:42;;;;;;;6.15;3.78;;;14.00;99.90;;;;;;4990895;28;20060;-72
2022/06/07 02:09:12;;;;;;;;;;;14.00;99.90;;;;;;4976046;28;20445;-73
2022/06/07 02:11:40;;;;;;;5.68;3.63;;;14.00;99.90;;;;;;4977676;28;19984;-71
2022/06/07 02:14:10;;;;;;;3.95;3.58;;;14.10;99.90;;;;;;4976615;28;20132;-72
2022/06/07 02:16:37;;;;;;;4.28;3.88;;;14.10;99.90;;;;;;4989513;28;20093;-69
2022/06/07 02:19:06;;;;;;;4.05;3.65;;;14.10;99.90;;;;;;4990208;28;20050;-67
2022/06/07 02:21:37;;;;;;;6.07;3.42;;;14.10;99.90;;;;;;4989451;28;20456;-68
2022/06/07 02:24:07;;;;;;;3.37;3.00;;;14.10;99.90;;;;;;4990670;28;20049;-71
2022/06/07 02:26:43;;;;;;;6.07;3.33;;;14.10;99.90;;;;;;4974205;28;20216;-69
2022/06/07 02:29:15;;;;;;;4.72;2.63;;;14.10;99.90;;;;;;4975027;28;20808;-74
2022/06/07 02:31:51;;;;;;;3.50;3.30;;;14.10;99.90;;;;;;4996661;28;20061;-71
2022/06/07 02:34:20;;;;;;;5.00;3.75;;;14.00;99.90;;;;;;4994268;28;20056;-70
2022/06/07 02:36:51;;;;;;;5.50;3.13;;;14.10;99.90;;;;;;4996412;28;20077;-70
2022/06/07 02:39:18;;;;;;;6.07;2.60;;;14.10;99.90;;;;;;4996301;28;20068;-70
2022/06/07 02:41:47;;;;;;;6.57;3.17;;;14.10;99.90;;;;;;4996645;28;20421;-71
2022/06/07 02:44:13;;;;;;;5.65;3.15;;;14.00;99.90;;;;;;4976547;28;20137;-69
2022/06/07 02:46:41;;;;;;;3.28;2.95;;;14.10;99.90;;;;;;4995183;28;20144;-69
2022/06/07 02:49:08;;;;;;;7.47;3.90;;;14.00;99.90;;;;;;4978119;28;21337;-69
2022/06/07 02:51:36;;;;;;;4.97;3.17;;;14.10;99.90;;;;;;4976640;28;20064;-69
2022/06/07 02:54:05;;;;;;;3.92;3.05;;;14.10;99.90;;;;;;4974903;28;20069;-74
2022/06/07 02:56:32;;;;;;;5.38;3.35;;;14.10;99.90;;;;;;4972990;28;20704;-73
2022/06/07 02:58:59;;;;;;;11.48;3.97;;;14.10;99.90;;;;;;4973612;28;20054;-69
2022/06/07 03:01:29;;;;;;;3.17;2.70;;;14.10;99.90;;;;;;4994404;28;20148;-70
2022/06/07 03:03:58;;;;;;;3.70;3.05;;;14.10;99.90;;;;;;4974413;28;20143;-70
2022/06/07 03:06:30;;;;;;;3.55;3.25;;;14.10;99.90;;;;;;4993461;28;21549;-70
2022/06/07 03:08:57;;;;;;;3.30;2.97;;;14.10;99.90;;;;;;4977422;28;20524;-74
2022/06/07 03:11:24;;;;;;;4.75;2.97;;;14.10;99.90;;;;;;4976121;28;20061;-74
2022/06/07 03:13:52;;;;;;;7.32;3.75;;;14.10;99.90;;;;;;4975266;28;20049;-67
2022/06/07 03:16:24;;;;;;;4.40;3.50;;;14.20;99.90;;;;;;4975748;28;20050;-72
2022/06/07 03:18:51;;;;;;;5.00;3.55;;;14.20;99.90;;;;;;4976415;28;20050;-70
2022/06/07 03:21:19;;;;;;;6.28;4.00;;;14.20;99.90;;;;;;4977811;28;20209;-67
2022/06/07 03:23:47;;;;;;;5.97;3.72;;;14.20;99.90;;;;;;4976840;28;20148;-70
2022/06/07 03:26:16;;;;;;;4.53;3.20;;;14.20;99.90;;;;;;4973637;28;20073;-72
2022/06/07 03:28:50;;;;;;;6.55;3.58;;;14.10;99.90;;;;;;4954227;28;20078;-71
2022/06/07 03:31:19;;;;;;;3.75;3.42;;;14.20;99.90;;;;;;4954224;28;20113;-70
2022/06/07 03:33:51;;;;;;;5.78;3.40;;;14.20;99.90;;;;;;4953298;28;20089;-69
2022/06/07 03:36:30;;;;;;;5.97;4.07;;;14.20;99.90;;;;;;4950554;28;20065;-71
2022/06/07 03:39:00;;;;;;;3.90;2.85;;;14.20;99.90;;;;;;4943300;28;20077;-74
2022/06/07 03:41:31;;;;;;;3.28;2.95;;;14.30;99.90;;;;;;4954021;28;20385;-72
2022/06/07 03:44:16;;;;;;;5.25;3.35;;;14.30;99.90;;;;;;4949517;28;20374;-72
2022/06/07 03:46:49;;;;;;;3.65;3.42;;;14.30;99.90;;;;;;4950614;28;20417;-74
2022/06/07 03:49:19;;;;;;;18.42;3.92;;;14.30;99.90;;;;;;4950240;28;20073;-72
2022/06/07 03:51:48;;;;;;;5.03;3.40;;;14.30;99.90;;;;;;4947914;28;20804;-69
2022/06/07 03:54:17;;;;;;;5.03;3.75;;;14.30;99.90;;;;;;4969512;28;20125;-72
2022/06/07 03:56:46;;;;;;;4.35;3.25;;;14.30;99.90;;;;;;4970223;28;20050;-69
2022/06/07 03:59:15;;;;;;;5.80;4.07;;;14.30;99.90;;;;;;4951901;28;20172;-76
2022/06/07 04:01:42;;;;;;;3.80;3.50;;;14.30;99.90;;;;;;4965201;28;20476;-75
2022/06/07 04:04:10;;;;;;;6.05;3.25;;;14.40;99.90;;;;;;4967841;28;20050;-71
2022/06/07 04:06:40;;;;;;;3.83;3.42;;;14.40;99.90;;;;;;4948424;28;20050;-72
2022/06/07 04:09:15;;;;;;;4.13;3.13;;;14.40;99.90;;;;;;4952698;28;20652;-72
2022/06/07 04:11:45;;;;;;;7.57;3.78;;;14.40;99.90;;;;;;4948779;28;20178;-71
2022/06/07 04:14:12;;;;;;;6.28;3.55;;;14.50;99.90;;;;;;4949716;28;21392;-73
2022/06/07 04:16:40;;;;;;;5.22;3.35;;;14.50;99.90;;;;;;4946886;28;20050;-71
2022/06/07 04:19:12;;;;;;;3.35;3.08;;;14.50;99.90;;;;;;4953302;28;20079;-71
2022/06/07 04:21:39;;;;;;;5.93;3.10;;;14.50;99.90;;;;;;4949171;28;20050;-72
2022/06/07 04:24:32;;;;;;;4.18;3.35;;;14.50;99.90;;;;;;4957020;28;20172;-71
2022/06/07 04:27:00;;;;;;;2.80;2.50;;;14.50;99.90;;;;;;4952386;28;20176;-74
2022/06/07 04:29:29;;;;;;;3.80;3.25;;;14.50;99.90;;;;;;4951904;28;20089;-71
2022/06/07 04:31:57;;;;;;;6.75;5.78;;;14.50;99.90;;;;;;4971280;28;20046;-70
2022/06/07 04:34:25;;;;;;;4.55;3.08;;;14.60;99.90;;;;;;4961917;28;20046;-69
2022/06/07 04:36:53;;;;;;;4.50;3.35;;;14.60;99.90;;;;;;4951407;28;20046;-69
2022/06/07 04:39:25;;;;;;;3.75;3.45;;;14.60;99.90;;;;;;4948030;28;20077;-70
2022/06/07 04:42:12;;;;;;;6.82;3.38;;;14.60;99.90;;;;;;4953085;28;20050;-72
2022/06/07 04:45:02;;;;;;;3.90;3.17;;;14.60;99.90;;;;;;4952012;28;20049;-71
2022/06/07 04:47:47;;;;;;;5.45;3.75;;;14.70;99.90;;;;;;4969173;28;20303;-73
2022/06/07 04:50:17;;;;;;;5.05;3.83;;;14.70;99.90;;;;;;4945168;28;20113;-67
2022/06/07 04:52:46;;;;;;;5.63;3.63;;;14.80;99.90;;;;;;4957025;28;20435;-72
2022/06/07 04:55:14;;;;;;;8.02;3.63;;;14.80;99.90;;;;;;4955672;28;20061;-72
2022/06/07 04:57:42;;;;;;;4.07;3.58;;;14.90;99.90;;;;;;4955595;28;20054;-68
2022/06/07 05:00:18;;;;;;;7.22;4.03;;;14.90;99.90;;;;;;4972968;28;20128;-67
2022/06/07 05:02:53;;;;;;;4.50;3.05;;;14.90;99.90;;;;;;4952640;28;20066;-69
2022/06/07 05:05:21;;;;;;;8.23;3.78;;;15.00;99.90;;;;;;4955467;28;20058;-70
2022/06/07 05:07:49;;;;;;;7.05;4.13;;;15.00;99.90;;;;;;4938443;28;20057;-68
2022/06/07 05:10:20;;;;;;;5.35;4.32;;;15.00;99.90;;;;;;4952054;28;20057;-72
2022/06/07 05:12:52;;;;;;;5.20;3.55;;;15.10;99.90;;;;;;4953397;28;20131;-70
2022/06/07 05:15:23;;;;;;;4.25;3.45;;;15.10;99.90;;;;;;4953879;28;20046;-70
2022/06/07 05:17:54;;;;;;;4.00;3.63;;;15.10;99.90;;;;;;4945853;28;20192;-68
2022/06/07 05:20:23;;;;;;;6.95;3.25;;;15.10;99.90;;;;;;4955951;28;20848;-72
2022/06/07 05:22:57;;;;;;;6.32;3.72;;;15.10;99.90;;;;;;4952698;28;20160;-70
2022/06/07 05:25:25;;;;;;;5.93;3.67;;;15.10;99.90;;;;;;4968400;28;20046;-71
2022/06/07 05:27:53;;;;;;;6.18;4.32;;;15.10;99.90;;;;;;4954484;28;20058;-74
2022/06/07 05:30:26;;;;;;;7.28;4.55;;;15.10;99.90;;;;;;4943574;28;20963;-72
2022/06/07 05:33:04;;;;;;;7.30;4.25;;;15.20;99.90;;;;;;4954533;28;20061;-70
2022/06/07 05:35:43;;;;;;;6.05;4.95;;;15.20;99.90;;;;;;4950426;28;20500;-69
2022/06/07 05:38:15;;;;;;;7.75;4.22;;;15.20;99.90;;;;;;4953356;28;20137;-72
2022/06/07 05:40:47;;;;;;;6.75;4.22;;;15.30;99.90;;;;;;4952646;28;20042;-71
2022/06/07 05:43:17;;;;;;;4.90;4.10;;;15.30;99.90;;;;;;4954993;28;20405;-73
2022/06/07 05:45:51;;;;;;;8.20;4.85;;;15.30;99.90;;;;;;4954179;28;20054;-68
2022/06/07 05:48:25;;;;;;;5.30;3.60;;;15.30;99.90;;;;;;4954876;28;20572;-73
2022/06/07 05:50:52;;;;;;;5.07;3.53;;;15.30;99.90;;;;;;4955537;28;20194;-74
2022/06/07 05:53:27;;;;;;;7.28;4.60;;;15.40;99.90;;;;;;4956945;28;20170;-69
2022/06/07 05:55:54;;;;;;;5.57;3.58;;;15.40;99.90;;;;;;4956679;28;20058;-71
2022/06/07 05:58:23;;;;;;;4.85;3.38;;;15.40;99.90;;;;;;4954022;28;20053;-75
2022/06/07 06:00:50;;;;;;;4.43;4.00;;;15.50;99.90;;;;;;4938771;28;21034;-71
2022/06/07 06:03:22;;;;;;;4.32;3.92;;;15.50;99.90;;;;;;4959939;28;20202;-68
2022/06/07 06:05:50;;;;;;;4.32;3.55;;;15.60;99.90;;;;;;4959761;28;20544;-71
2022/06/07 06:11:16;;;;;;;5.93;3.90;;;15.70;99.90;;;;;;4961157;28;20057;-68
2022/06/07 06:14:04;;;;;;;4.75;4.03;;;15.70;99.90;;;;;;4962128;28;20069;-72
2022/06/07 06:16:32;;;;;;;5.30;4.00;;;15.70;99.90;;;;;;4958400;28;20057;-68
2022/06/07 06:19:00;;;;;;;7.35;3.50;;;15.80;99.90;;;;;;4962249;28;20061;-72
2022/06/07 06:21:38;;;;;;;4.72;4.22;;;15.80;99.90;;;;;;4960345;28;20054;-71
2022/06/07 06:24:09;;;;;;;3.58;3.28;;;15.80;99.90;;;;;;4991137;28;20078;-73
2022/06/07 06:26:39;;;;;;;5.93;3.38;;;15.90;99.90;;;;;;4958428;28;20840;-69
2022/06/07 06:29:09;;;;;;;3.60;3.30;;;15.90;99.90;;;;;;4976095;28;20207;-71
2022/06/07 06:31:39;;;;;;;5.28;3.70;;;15.90;99.90;;;;;;4975136;28;20058;-71
2022/06/07 06:34:08;;;;;;;6.20;3.75;;;15.90;99.90;;;;;;4966427;28;20107;-74
2022/06/07 06:36:35;;;;;;;5.22;3.80;;;15.90;99.90;;;;;;4990227;28;20059;-69
2022/06/07 06:39:12;;;;;;;5.82;3.70;;;15.90;99.90;;;;;;4976220;28;20050;-72
2022/06/07 06:41:46;;;;;;;3.13;2.92;;;15.90;99.90;;;;;;4977238;28;20064;-71
2022/06/07 06:44:17;;;;;;;5.60;4.22;;;16.00;99.90;;;;;;4974737;28;21753;-70
2022/06/07 06:46:47;;;;;;;5.13;3.10;;;16.00;99.90;;;;;;5008858;28;20069;-70
2022/06/07 06:49:18;;;;;;;4.68;3.83;;;16.00;99.90;;;;;;4974784;28;20103;-73
2022/06/07 06:51:47;;;;;;;4.70;3.88;;;16.10;99.90;;;;;;4977183;28;20046;-74
2022/06/07 06:54:17;;;;;;;5.10;3.67;;;16.10;99.90;;;;;;4974555;28;20054;-73
2022/06/07 06:56:52;;;;;;;5.50;4.03;;;16.10;99.90;;;;;;4976505;28;20125;-75
2022/06/07 06:59:23;;;;;;;4.30;3.53;;;16.10;99.90;;;;;;4974996;28;20057;-73
2022/06/07 07:01:54;;;;;;;4.35;4.00;;;16.20;99.90;;;;;;4974833;28;20073;-72
2022/06/07 07:04:24;;;;;;;4.75;3.55;;;16.10;99.90;;;;;;4975658;28;20137;-69
2022/06/07 07:06:52;;;;;;;5.35;3.95;;;16.10;99.90;;;;;;4991018;28;20050;-71
2022/06/07 07:09:26;;;;;;;4.40;3.05;;;16.10;99.90;;;;;;4975952;28;20065;-67
2022/06/07 07:12:00;;;;;;;4.97;3.53;;;16.10;99.90;;;;;;4975982;28;20065;-68
2022/06/07 07:14:41;;;;;;;5.90;4.07;;;16.20;99.90;;;;;;4972807;28;20146;-72
2022/06/07 07:17:14;;;;;;;4.00;3.05;;;16.20;99.90;;;;;;4976165;28;20054;-71
2022/06/07 07:19:41;;;;;;;5.00;3.50;;;16.20;99.90;;;;;;4988813;28;20138;-70
2022/06/07 07:22:11;;;;;;;5.95;3.78;;;16.30;99.90;;;;;;4959217;28;20045;-74
2022/06/07 07:24:41;;;;;;;4.38;3.97;;;16.40;99.90;;;;;;4971606;28;20144;-71
2022/06/07 07:27:08;;;;;;;3.78;3.47;;;16.40;99.90;;;;;;4973424;28;21020;-72
2022/06/07 07:29:38;;;;;;;3.85;3.53;;;16.40;99.90;;;;;;4975080;28;20053;-73
2022/06/07 07:32:09;;;;;;;4.13;3.72;;;16.40;99.90;;;;;;4974678;28;21322;-74
2022/06/07 07:34:44;;;;;;;3.65;3.35;;;16.30;99.90;;;;;;4974806;28;20053;-71
2022/06/07 07:37:12;;;;;;;3.88;3.28;;;16.30;99.90;;;;;;4991848;28;20271;-74
2022/06/07 07:39:39;;;;;;;5.63;3.65;;;16.30;99.90;;;;;;4977278;28;20049;-73
2022/06/07 07:42:13;;;;;;;4.45;4.00;;;16.20;99.90;;;;;;4975971;28;20045;-73
2022/06/07 07:44:46;;;;;;;6.60;3.80;;;16.10;99.90;;;;;;4974102;28;20132;-72
2022/06/07 07:47:13;;;;;;;5.13;3.70;;;16.00;99.90;;;;;;4975715;28;20053;-73
2022/06/07 07:49:43;;;;;;;3.80;3.50;;;16.00;99.90;;;;;;4975162;28;20053;-76
2022/06/07 07:52:12;;;;;;;5.22;3.80;;;16.00;99.90;;;;;;4977693;28;20067;-69
2022/06/07 07:54:39;;;;;;;8.40;4.15;;;16.00;99.90;;;;;;4975307;28;20065;-71
2022/06/07 07:57:09;;;;;;;5.20;4.80;;;15.90;99.90;;;;;;4977272;28;20054;-71
2022/06/07 07:59:43;;;;;;;8.50;4.13;;;15.90;99.90;;;;;;4974617;28;20051;-77
2022/06/07 08:02:21;;;;;;;6.03;4.00;;;15.80;99.90;;;;;;4976108;28;20057;-70
2022/06/07 08:04:59;;;;;;;9.73;3.35;;;15.80;99.90;;;;;;4976258;28;20641;-71
2022/06/07 08:07:27;;;;;;;8.02;3.17;;;15.80;99.90;;;;;;4978087;28;20056;-67
2022/06/07 08:09:54;;;;;;;10.98;4.38;;;15.80;99.90;;;;;;4976258;28;20049;-70
2022/06/07 08:12:20;;;;;;;3.80;3.50;;;15.80;99.90;;;;;;4989130;28;20089;-73
2022/06/07 08:14:47;;;;;;;6.55;3.90;;;15.80;99.90;;;;;;4992490;28;20073;-69
2022/06/07 08:17:14;;;;;;;5.15;3.85;;;15.70;99.90;;;;;;4991695;28;20488;-73
2022/06/07 08:19:42;;;;;;;8.23;4.50;;;15.80;99.90;;;;;;4991316;28;20081;-68
2022/06/07 08:22:09;;;;;;;4.65;3.53;;;15.80;99.90;;;;;;4977945;28;20049;-68
2022/06/07 08:24:37;;;;;;;7.68;4.10;;;15.90;99.90;;;;;;4988386;28;20527;-70
2022/06/07 08:27:04;;;;;;;4.63;4.22;;;15.90;99.90;;;;;;4992107;28;20116;-71
2022/06/07 08:29:31;;;;;;;6.35;4.57;;;15.90;99.90;;;;;;4990287;28;20049;-71
2022/06/07 08:31:58;;;;;;;7.43;4.20;;;16.00;99.90;;;;;;4987667;28;20108;-76
2022/06/07 08:39:56;;;;;;;4.85;4.10;;;16.20;99.90;;;;;;4990197;28;20772;-73
2022/06/07 08:42:31;;;;;;;12.90;4.63;;;16.30;99.90;;;;;;4988559;28;20493;-73
2022/06/07 08:45:08;;;;;;;6.57;4.60;;;16.30;99.90;;;;;;4988775;28;20111;-75
2022/06/07 08:47:44;;;;;;;5.88;5.38;;;16.20;99.90;;;;;;4988522;28;20049;-72
2022/06/07 08:50:23;;;;;;;9.98;4.65;;;16.20;99.90;;;;;;4989317;28;20057;-73
2022/06/07 08:53:00;;;;;;;7.80;4.47;;;16.20;99.90;;;;;;4988490;28;20057;-73
2022/06/07 08:55:41;;;;;;;6.90;4.75;;;16.20;99.90;;;;;;4992081;28;20084;-75
2022/06/07 08:58:25;;;;;;;6.13;4.53;;;16.20;99.90;;;;;;4989209;28;20061;-71
2022/06/07 09:00:57;;;;;;;5.40;4.45;;;16.30;99.90;;;;;;4987952;28;20081;-69
2022/06/07 09:03:41;;;;;;;4.82;3.90;;;16.30;99.90;;;;;;4988850;28;20057;-71
2022/06/07 09:06:21;;;;;;;4.63;4.25;;;16.50;99.90;;;;;;4990313;28;20848;-72
2022/06/07 09:08:52;;;;;;;5.50;4.28;;;16.60;99.90;;;;;;4987660;28;20080;-75
2022/06/07 09:14:29;;;;;;;4.30;3.45;;;16.90;99.90;;;;;;4989376;28;20068;-69
2022/06/07 09:16:58;;;;;;;4.32;3.97;;;17.10;99.90;;;;;;4990779;28;20072;-74
2022/06/07 09:19:28;;;;;;;7.85;3.45;;;17.20;99.90;;;;;;4988865;28;20057;-71
2022/06/07 09:21:56;;;;;;;;;;;17.30;99.90;;;;;;4984743;28;20054;-72
2022/06/07 09:24:37;;;;;;;10.38;4.50;;;17.40;99.90;;;;;;4987662;28;20458;-71
2022/06/07 09:27:10;;;;;;;5.38;4.50;;;17.50;99.90;;;;;;4984870;28;20049;-71
2022/06/07 09:29:39;;;;;;;6.30;5.25;;;17.70;99.90;;;;;;4974507;28;20442;-73
2022/06/07 09:32:11;;;;;;;4.72;4.25;;;17.80;99.90;;;;;;4973998;28;20065;-74
2022/06/07 09:34:49;;;;;;;4.28;3.88;;;17.90;99.90;;;;;;4970019;28;21929;-76
2022/06/07 09:37:21;;;;;;;4.97;3.70;;;18.00;99.90;;;;;;4973903;28;20073;-72
2022/06/07 09:39:58;;;;;;;9.10;4.72;;;18.10;99.90;;;;;;4975838;28;20129;-71
2022/06/07 09:42:29;;;;;;;7.13;4.40;;;18.30;99.90;;;;;;4973109;28;20125;-71
2022/06/07 09:45:22;;;;;;;4.43;4.00;;;18.50;99.90;;;;;;4974103;28;20046;-74
2022/06/07 09:47:49;;;;;;;6.00;4.03;;;18.70;99.90;;;;;;4978048;28;20046;-69
2022/06/07 09:50:37;;;;;;;5.97;4.18;;;19.00;99.90;;;;;;4978572;28;20145;-73
2022/06/07 09:53:16;;;;;;;4.97;3.80;;;19.10;99.90;;;;;;4977494;28;20042;-72
2022/06/07 09:55:45;;;;;;;6.22;5.50;;;19.30;99.90;;;;;;4977421;28;20069;-73
2022/06/07 09:58:54;;;;;;;5.25;3.95;;;19.40;99.90;;;;;;4976688;28;20133;-67
2022/06/07 10:01:51;;;;;;;5.05;4.07;;;19.60;99.90;;;;;;4975028;28;20050;-69
2022/06/07 10:04:57;;;;;;;5.55;4.18;;;19.60;99.90;;;;;;4966242;28;20057;-73
2022/06/07 10:07:37;;;;;;;5.50;3.80;;;19.70;99.90;;;;;;4954658;28;20053;-73
2022/06/07 10:10:10;;;;;;;;;;;19.90;99.90;;;;;;4968115;28;20065;-72
2022/06/07 10:13:12;;;;;;;8.00;4.95;;;20.10;99.90;;;;;;4968408;28;20036;-69
2022/06/07 10:16:05;;;;;;;21.02;10.27;;;20.30;99.90;;;;;;4971987;28;20095;-71
2022/06/07 10:18:53;;;;;;;6.80;4.32;;;20.50;99.90;;;;;;4960172;28;20230;-71
2022/06/07 10:21:51;;;;;;;6.07;4.28;;;20.60;99.90;;;;;;4968482;28;20093;-74
2022/06/07 10:24:55;;;;;;;4.30;3.97;;;20.60;99.90;;;;;;4944610;28;20085;-73
2022/06/07 10:27:26;;;;;;;4.45;3.65;;;20.70;99.90;;;;;;4980344;28;20389;-69
2022/06/07 10:29:56;;;;;;;4.75;4.35;;;20.80;99.90;;;;;;4994057;28;20057;-68
2022/06/07 10:32:58;;;;;;;4.70;3.72;;;20.90;99.90;;;;;;4993071;28;20050;-76
2022/06/07 10:35:44;;;;;;;6.05;4.72;;;20.90;99.90;;;;;;4995169;28;21437;-71
2022/06/07 10:38:32;;;;;;;4.40;4.00;;;20.90;99.90;;;;;;4990489;28;20870;-75
2022/06/07 10:41:01;;;;;;;4.45;3.92;;;21.00;99.90;;;;;;4992245;28;20053;-74
2022/06/07 10:43:58;;;;;;;4.80;4.30;;;21.10;99.90;;;;;;4996067;28;20100;-71
2022/06/07 10:46:28;;;;;;;4.38;3.97;;;21.10;99.90;;;;;;4989077;28;20141;-74
2022/06/07 10:49:26;;;;;;;4.90;4.50;;;21.20;99.90;;;;;;4994227;28;20056;-71
2022/06/07 10:52:21;;;;;;;6.57;4.35;;;21.10;99.90;;;;;;4990857;28;20092;-73
2022/06/07 10:54:55;;;;;;;4.95;4.60;;;21.10;99.90;;;;;;4990754;28;20107;-73
2022/06/07 10:57:57;;;;;;;4.65;4.25;;;21.10;99.90;;;;;;4994918;28;20103;-69
2022/06/07 11:00:29;;;;;;;7.75;5.38;;;21.20;99.90;;;;;;4991312;28;20136;-70
2022/06/07 11:03:11;;;;;;;4.50;4.10;;;21.10;99.90;;;;;;4991327;28;20141;-73
2022/06/07 11:11:33;;;;;;;5.40;4.95;;;21.20;99.90;;;;;;4999782;28;20772;-68
2022/06/07 11:14:12;;;;;;;5.50;5.03;;;20.90;99.90;;;;;;4998791;28;20049;-70
2022/06/07 11:16:48;;;;;;;6.47;5.15;;;20.70;99.90;;;;;;4995854;28;20113;-69
2022/06/07 11:19:16;;;;;;;5.55;4.45;;;20.40;99.90;;;;;;5000628;28;20081;-74
2022/06/07 11:21:47;;;;;;;5.30;4.80;;;20.10;99.90;;;;;;5000899;28;21117;-74
2022/06/07 11:24:17;;;;;;;5.20;4.50;;;19.90;99.90;;;;;;4997680;28;20603;-72
2022/06/07 11:26:50;;;;;;;6.13;4.65;;;19.70;99.90;;;;;;4996540;28;20113;-68
2022/06/07 11:29:30;;;;;;;5.78;5.07;;;19.50;99.90;;;;;;4997982;28;20467;-71
2022/06/07 11:31:58;;;;;;;5.57;4.88;;;19.30;99.90;;;;;;4993794;28;20172;-72
2022/06/07 11:34:27;;;;;;;6.80;4.65;;;19.20;99.90;;;;;;4994381;28;20049;-75
2022/06/07 11:37:13;;;;;;;24.37;8.10;;;19.10;99.90;;;;;;4984423;28;20173;-75
2022/06/07 11:39:40;;;;;;;6.15;5.45;;;19.00;99.90;;;;;;4988957;28;20113;-79
2022/06/07 11:42:06;;;;;;;5.72;5.32;;;19.00;99.90;;;;;;4990195;28;20648;-76
2022/06/07 11:44:36;;;;;;;5.57;5.07;;;19.00;99.90;;;;;;4989595;28;20053;-73
2022/06/07 11:47:15;;;;;;;7.35;5.25;;;19.00;99.90;;;;;;4991326;28;20322;-70
2022/06/07 11:49:57;;;;;;;5.38;4.88;;;19.10;99.90;;;;;;4991269;28;20069;-70
2022/06/07 11:52:56;;;;;;;5.68;5.18;;;19.10;99.90;;;;;;4990523;28;20058;-73
2022/06/07 11:55:27;;;;;;;7.15;6.30;;;19.20;99.90;;;;;;4986308;28;20176;-71
2022/06/07 11:58:04;;;;;;;13.73;6.45;;;19.20;99.90;;;;;;4992491;28;20112;-73
2022/06/07 12:00:31;;;;;;;7.22;6.63;;;19.40;99.90;;;;;;4986676;28;20053;-69
2022/06/07 12:03:00;;;;;;;11.57;6.82;;;19.40;99.90;;;;;;4986006;28;20132;-72
2022/06/07 12:05:42;;;;;;;8.45;6.88;;;19.50;99.90;;;;;;4985974;28;20045;-73
2022/06/07 12:08:25;;;;;;;10.88;6.07;;;19.60;99.90;;;;;;4999064;28;20191;-73
2022/06/07 12:11:20;;;;;;;8.73;6.22;;;19.70;99.90;;;;;;4969154;28;20173;-69
2022/06/07 12:14:01;;;;;;;5.63;5.22;;;19.80;99.90;;;;;;4986506;28;21047;-69
2022/06/07 12:16:39;;;;;;;;;;;19.80;99.90;;;;;;4985367;28;20105;-71
2022/06/07 12:19:28;;;;;;;7.82;5.70;;;20.00;99.90;;;;;;4980686;28;19929;-73
2022/06/07 12:22:14;;;;;;;6.70;6.15;;;20.10;99.90;;;;;;4987487;28;20053;-68
2022/06/07 12:24:58;;;;;;;7.50;6.78;;;20.20;99.90;;;;;;4985335;28;20898;-73
2022/06/07 12:27:35;;;;;;;6.50;5.47;;;20.30;99.90;;;;;;4983695;28;20050;-70
2022/06/07 12:30:25;;;;;;;7.03;6.43;;;20.40;99.90;;;;;;4982069;28;20041;-70
2022/06/07 12:32:54;;;;;;;6.72;6.13;;;20.50;99.90;;;;;;4981522;28;20054;-70
2022/06/07 12:35:26;;;;;;;6.55;6.05;;;20.50;99.90;;;;;;4986580;28;20137;-76
2022/06/07 12:37:56;;;;;;;6.70;6.20;;;20.50;99.90;;;;;;4968974;28;20196;-75
2022/06/07 12:40:42;;;;;;;;;;;20.60;99.90;;;;;;4983333;28;20101;-72
2022/06/07 12:43:22;;;;;;;17.65;7.10;;;20.80;99.90;;;;;;4988345;28;20658;-73
2022/06/07 12:46:01;;;;;;;8.95;6.72;;;20.90;99.90;;;;;;4984143;28;20167;-75
2022/06/07 12:48:38;;;;;;;6.93;6.22;;;20.90;99.90;;;;;;4984094;28;20099;-70
2022/06/07 12:51:35;;;;;;;6.57;5.97;;;20.90;99.90;;;;;;4985662;28;20059;-70
2022/06/07 12:54:05;;;;;;;5.35;4.95;;;20.90;99.90;;;;;;4983988;28;20069;-74
2022/06/07 12:56:37;;;;;;;6.30;5.75;;;21.00;99.90;;;;;;4983348;28;20606;-70
2022/06/07 12:59:08;;;;;;;5.57;5.10;;;21.00;99.90;;;;;;4982909;28;20072;-73
2022/06/07 13:01:39;;;;;;;6.50;5.82;;;21.00;99.90;;;;;;4986671;28;20049;-70
2022/06/07 13:04:18;;;;;;;5.95;5.15;;;21.10;99.90;;;;;;4983842;28;20287;-72
2022/06/07 13:07:09;;;;;;;5.30;4.90;;;21.20;99.90;;;;;;4984279;28;20188;-69
2022/06/07 13:10:00;;;;;;;4.82;4.53;;;21.20;99.90;;;;;;4982020;28;20077;-71
2022/06/07 13:12:35;;;;;;;;;;;21.10;99.90;;;;;;4982223;28;20056;-69
2022/06/07 13:15:10;;;;;;;5.68;5.28;;;21.10;99.90;;;;;;4983868;28;19933;-73
2022/06/07 13:17:40;;;;;;;6.55;5.95;;;21.00;99.90;;;;;;4986113;28;20081;-71
2022/06/07 13:20:11;;;;;;;7.13;6.13;;;20.90;99.90;;;;;;4986526;28;20049;-74
2022/06/07 13:22:42;;;;;;;8.23;5.90;;;20.80;99.90;;;;;;4986303;28;20085;-72
2022/06/07 13:25:20;;;;;;;9.27;5.95;;;20.60;99.90;;;;;;4986478;28;20050;-75
2022/06/07 13:27:51;;;;;;;6.22;5.75;;;20.60;99.90;;;;;;4983768;28;21209;-72
2022/06/07 13:30:26;;;;;;;6.30;5.72;;;20.50;99.90;;;;;;4978441;28;20658;-71
2022/06/07 13:33:11;;;;;;;5.35;4.85;;;20.60;99.90;;;;;;4981486;28;20562;-72
2022/06/07 13:35:43;;;;;;;6.10;5.60;;;20.80;99.90;;;;;;4983815;28;20050;-73
2022/06/07 13:38:22;;;;;;;6.25;5.75;;;20.90;99.90;;;;;;4983605;28;20074;-70
2022/06/07 13:41:01;;;;;;;7.03;5.90;;;21.00;99.90;;;;;;4962650;28;20060;-68
2022/06/07 13:43:29;;;;;;;5.43;4.93;;;21.20;99.90;;;;;;4985746;28;20070;-70